sensor_id;sensor_type;location;lat;lon;timestamp;P1;durP1;ratioP1;P2;durP2;ratioP2
28481;SDS011;15703;49.588;6.260;2023-02-26T00:02:29;8.07;;;5.43;;
28481;SDS011;15703;49.588;6.260;2023-02-26T00:05:01;8.60;;;5.50;;
28481;SDS011;15703;49.588;6.260;2023-02-26T00:07:24;6.83;;;5.10;;
28481;SDS011;15703;49.588;6.260;2023-02-26T00:09:52;5.80;;;5.30;;
28481;SDS011;15703;49.588;6.260;2023-02-26T00:13:03;5.90;;;5.50;;
28481;SDS011;15703;49.588;6.260;2023-02-26T00:27:39;6.83;;;5.77;;
28481;SDS011;15703;49.588;6.260;2023-02-26T00:33:28;5.93;;;4.50;;
28481;SDS011;15703;49.588;6.260;2023-02-26T00:35:52;7.27;;;5.63;;
28481;SDS011;15703;49.588;6.260;2023-02-26T00:38:18;8.07;;;5.73;;
28481;SDS011;15703;49.588;6.260;2023-02-26T00:40:44;10.27;;;5.67;;
28481;SDS011;15703;49.588;6.260;2023-02-26T00:43:18;10.07;;;5.90;;
28481;SDS011;15703;49.588;6.260;2023-02-26T00:45:50;7.67;;;5.70;;
28481;SDS011;15703;49.588;6.260;2023-02-26T00:48:24;8.37;;;5.57;;
28481;SDS011;15703;49.588;6.260;2023-02-26T00:50:55;6.40;;;5.27;;
28481;SDS011;15703;49.588;6.260;2023-02-26T00:53:58;6.30;;;5.17;;
28481;SDS011;15703;49.588;6.260;2023-02-26T00:56:13;8.00;;;4.73;;
28481;SDS011;15703;49.588;6.260;2023-02-26T00:58:35;7.47;;;4.70;;
28481;SDS011;15703;49.588;6.260;2023-02-26T01:00:58;5.57;;;4.97;;
28481;SDS011;15703;49.588;6.260;2023-02-26T01:03:22;7.20;;;5.43;;
28481;SDS011;15703;49.588;6.260;2023-02-26T01:05:45;7.23;;;5.23;;
28481;SDS011;15703;49.588;6.260;2023-02-26T01:10:31;9.07;;;4.77;;
28481;SDS011;15703;49.588;6.260;2023-02-26T01:12:56;8.87;;;4.50;;
28481;SDS011;15703;49.588;6.260;2023-02-26T01:15:22;6.17;;;5.00;;
28481;SDS011;15703;49.588;6.260;2023-02-26T01:17:55;5.97;;;4.63;;
28481;SDS011;15703;49.588;6.260;2023-02-26T01:20:21;5.50;;;5.00;;
28481;SDS011;15703;49.588;6.260;2023-02-26T01:22:53;5.43;;;5.00;;
28481;SDS011;15703;49.588;6.260;2023-02-26T01:25:23;6.57;;;5.57;;
28481;SDS011;15703;49.588;6.260;2023-02-26T01:27:47;9.70;;;5.60;;
28481;SDS011;15703;49.588;6.260;2023-02-26T01:30:13;6.93;;;5.17;;
28481;SDS011;15703;49.588;6.260;2023-02-26T01:32:51;5.80;;;5.30;;
28481;SDS011;15703;49.588;6.260;2023-02-26T01:43:04;6.70;;;6.10;;
28481;SDS011;15703;49.588;6.260;2023-02-26T01:45:30;7.87;;;5.23;;
28481;SDS011;15703;49.588;6.260;2023-02-26T01:48:05;7.30;;;5.43;;
28481;SDS011;15703;49.588;6.260;2023-02-26T01:50:54;6.10;;;5.50;;
28481;SDS011;15703;49.588;6.260;2023-02-26T01:53:20;7.00;;;5.53;;
28481;SDS011;15703;49.588;6.260;2023-02-26T01:56:17;6.60;;;5.00;;
28481;SDS011;15703;49.588;6.260;2023-02-26T01:58:40;5.23;;;4.70;;
28481;SDS011;15703;49.588;6.260;2023-02-26T02:01:03;8.13;;;5.30;;
28481;SDS011;15703;49.588;6.260;2023-02-26T02:06:34;5.17;;;4.67;;
28481;SDS011;15703;49.588;6.260;2023-02-26T02:09:01;7.77;;;4.77;;
28481;SDS011;15703;49.588;6.260;2023-02-26T02:11:25;7.10;;;5.07;;
28481;SDS011;15703;49.588;6.260;2023-02-26T02:26:55;10.73;;;5.60;;
28481;SDS011;15703;49.588;6.260;2023-02-26T02:32:09;5.70;;;5.13;;
28481;SDS011;15703;49.588;6.260;2023-02-26T02:36:57;11.67;;;7.43;;
28481;SDS011;15703;49.588;6.260;2023-02-26T02:39:37;10.97;;;6.90;;
28481;SDS011;15703;49.588;6.260;2023-02-26T02:42:05;8.03;;;5.83;;
28481;SDS011;15703;49.588;6.260;2023-02-26T02:44:33;5.80;;;5.10;;
28481;SDS011;15703;49.588;6.260;2023-02-26T02:47:02;8.97;;;5.23;;
28481;SDS011;15703;49.588;6.260;2023-02-26T02:50:14;5.37;;;4.80;;
28481;SDS011;15703;49.588;6.260;2023-02-26T02:52:44;8.33;;;5.27;;
28481;SDS011;15703;49.588;6.260;2023-02-26T02:55:18;7.23;;;5.57;;
28481;SDS011;15703;49.588;6.260;2023-02-26T03:04:42;6.97;;;4.27;;
28481;SDS011;15703;49.588;6.260;2023-02-26T03:07:05;6.30;;;5.03;;
28481;SDS011;15703;49.588;6.260;2023-02-26T03:09:28;5.70;;;5.00;;
28481;SDS011;15703;49.588;6.260;2023-02-26T03:11:51;6.00;;;5.40;;
28481;SDS011;15703;49.588;6.260;2023-02-26T03:14:13;7.83;;;5.27;;
28481;SDS011;15703;49.588;6.260;2023-02-26T03:22:45;7.57;;;5.60;;
28481;SDS011;15703;49.588;6.260;2023-02-26T03:25:17;5.97;;;5.57;;
28481;SDS011;15703;49.588;6.260;2023-02-26T03:30:20;9.57;;;6.13;;
28481;SDS011;15703;49.588;6.260;2023-02-26T03:32:48;8.63;;;6.57;;
28481;SDS011;15703;49.588;6.260;2023-02-26T03:35:16;10.57;;;6.60;;
28481;SDS011;15703;49.588;6.260;2023-02-26T03:40:42;8.60;;;7.70;;
28481;SDS011;15703;49.588;6.260;2023-02-26T03:45:41;9.80;;;5.97;;
28481;SDS011;15703;49.588;6.260;2023-02-26T03:48:11;6.03;;;5.43;;
28481;SDS011;15703;49.588;6.260;2023-02-26T03:53:19;10.17;;;6.00;;
28481;SDS011;15703;49.588;6.260;2023-02-26T03:55:49;6.77;;;5.53;;
28481;SDS011;15703;49.588;6.260;2023-02-26T03:58:22;11.37;;;6.10;;
28481;SDS011;15703;49.588;6.260;2023-02-26T04:00:58;6.10;;;5.50;;
28481;SDS011;15703;49.588;6.260;2023-02-26T04:06:03;8.70;;;5.77;;
28481;SDS011;15703;49.588;6.260;2023-02-26T04:08:26;6.30;;;5.37;;
28481;SDS011;15703;49.588;6.260;2023-02-26T04:10:53;8.60;;;5.60;;
28481;SDS011;15703;49.588;6.260;2023-02-26T04:13:17;7.57;;;5.37;;
28481;SDS011;15703;49.588;6.260;2023-02-26T04:15:40;7.20;;;5.60;;
28481;SDS011;15703;49.588;6.260;2023-02-26T04:20:51;8.10;;;6.00;;
28481;SDS011;15703;49.588;6.260;2023-02-26T04:23:13;7.10;;;5.63;;
28481;SDS011;15703;49.588;6.260;2023-02-26T04:25:37;6.00;;;5.53;;
28481;SDS011;15703;49.588;6.260;2023-02-26T04:30:43;8.33;;;6.50;;
28481;SDS011;15703;49.588;6.260;2023-02-26T04:33:32;6.70;;;6.10;;
28481;SDS011;15703;49.588;6.260;2023-02-26T04:35:55;7.93;;;6.70;;
28481;SDS011;15703;49.588;6.260;2023-02-26T04:38:38;7.40;;;6.63;;
28481;SDS011;15703;49.588;6.260;2023-02-26T04:41:03;8.93;;;6.80;;
28481;SDS011;15703;49.588;6.260;2023-02-26T04:43:26;8.13;;;7.17;;
28481;SDS011;15703;49.588;6.260;2023-02-26T04:46:15;7.57;;;6.57;;
28481;SDS011;15703;49.588;6.260;2023-02-26T04:48:37;7.37;;;6.60;;
28481;SDS011;15703;49.588;6.260;2023-02-26T04:51:01;12.53;;;7.10;;
28481;SDS011;15703;49.588;6.260;2023-02-26T04:53:24;10.27;;;7.50;;
28481;SDS011;15703;49.588;6.260;2023-02-26T04:55:49;9.90;;;7.40;;
28481;SDS011;15703;49.588;6.260;2023-02-26T04:58:13;7.53;;;6.83;;
28481;SDS011;15703;49.588;6.260;2023-02-26T05:00:35;8.03;;;6.83;;
28481;SDS011;15703;49.588;6.260;2023-02-26T05:02:58;7.40;;;6.80;;
28481;SDS011;15703;49.588;6.260;2023-02-26T05:05:37;7.30;;;6.60;;
28481;SDS011;15703;49.588;6.260;2023-02-26T05:08:00;11.47;;;6.83;;
28481;SDS011;15703;49.588;6.260;2023-02-26T05:10:22;7.07;;;6.43;;
28481;SDS011;15703;49.588;6.260;2023-02-26T05:12:54;7.53;;;6.83;;
28481;SDS011;15703;49.588;6.260;2023-02-26T05:15:17;6.33;;;5.83;;
28481;SDS011;15703;49.588;6.260;2023-02-26T05:17:39;6.67;;;6.00;;
28481;SDS011;15703;49.588;6.260;2023-02-26T05:20:02;9.07;;;7.77;;
28481;SDS011;15703;49.588;6.260;2023-02-26T05:22:25;7.87;;;7.07;;
28481;SDS011;15703;49.588;6.260;2023-02-26T05:24:47;7.10;;;6.60;;
28481;SDS011;15703;49.588;6.260;2023-02-26T05:27:10;8.20;;;6.40;;
28481;SDS011;15703;49.588;6.260;2023-02-26T05:29:38;9.40;;;6.40;;
28481;SDS011;15703;49.588;6.260;2023-02-26T05:32:04;7.37;;;6.60;;
28481;SDS011;15703;49.588;6.260;2023-02-26T05:34:27;7.90;;;7.10;;
28481;SDS011;15703;49.588;6.260;2023-02-26T05:36:50;8.17;;;7.37;;
28481;SDS011;15703;49.588;6.260;2023-02-26T05:39:12;7.93;;;7.23;;
28481;SDS011;15703;49.588;6.260;2023-02-26T05:41:37;8.23;;;7.13;;
28481;SDS011;15703;49.588;6.260;2023-02-26T05:44:01;8.27;;;7.47;;
28481;SDS011;15703;49.588;6.260;2023-02-26T05:46:23;8.60;;;7.60;;
28481;SDS011;15703;49.588;6.260;2023-02-26T05:48:46;8.27;;;7.27;;
28481;SDS011;15703;49.588;6.260;2023-02-26T05:51:08;9.93;;;7.27;;
28481;SDS011;15703;49.588;6.260;2023-02-26T05:53:31;8.47;;;7.33;;
28481;SDS011;15703;49.588;6.260;2023-02-26T05:55:56;9.10;;;7.27;;
28481;SDS011;15703;49.588;6.260;2023-02-26T06:01:13;7.70;;;6.93;;
28481;SDS011;15703;49.588;6.260;2023-02-26T06:07:33;7.30;;;6.60;;
28481;SDS011;15703;49.588;6.260;2023-02-26T06:09:56;9.93;;;7.53;;
28481;SDS011;15703;49.588;6.260;2023-02-26T06:12:19;7.80;;;6.07;;
28481;SDS011;15703;49.588;6.260;2023-02-26T06:14:41;9.80;;;6.63;;
28481;SDS011;15703;49.588;6.260;2023-02-26T06:24:53;8.60;;;7.40;;
28481;SDS011;15703;49.588;6.260;2023-02-26T06:27:36;6.90;;;6.37;;
28481;SDS011;15703;49.588;6.260;2023-02-26T06:30:10;7.50;;;6.33;;
28481;SDS011;15703;49.588;6.260;2023-02-26T06:32:33;7.57;;;6.80;;
28481;SDS011;15703;49.588;6.260;2023-02-26T06:34:59;8.03;;;6.90;;
28481;SDS011;15703;49.588;6.260;2023-02-26T06:37:57;7.00;;;6.37;;
28481;SDS011;15703;49.588;6.260;2023-02-26T06:40:25;7.73;;;6.30;;
28481;SDS011;15703;49.588;6.260;2023-02-26T06:42:48;7.47;;;6.77;;
28481;SDS011;15703;49.588;6.260;2023-02-26T06:45:14;7.07;;;6.47;;
28481;SDS011;15703;49.588;6.260;2023-02-26T06:47:39;7.67;;;6.80;;
28481;SDS011;15703;49.588;6.260;2023-02-26T06:50:12;8.10;;;7.27;;
28481;SDS011;15703;49.588;6.260;2023-02-26T06:52:35;8.70;;;6.33;;
28481;SDS011;15703;49.588;6.260;2023-02-26T06:54:58;7.13;;;6.43;;
28481;SDS011;15703;49.588;6.260;2023-02-26T07:01:19;7.10;;;6.40;;
28481;SDS011;15703;49.588;6.260;2023-02-26T07:03:41;7.13;;;6.00;;
28481;SDS011;15703;49.588;6.260;2023-02-26T07:06:05;8.70;;;6.40;;
28481;SDS011;15703;49.588;6.260;2023-02-26T07:08:48;6.30;;;5.70;;
28481;SDS011;15703;49.588;6.260;2023-02-26T07:11:12;10.93;;;6.13;;
28481;SDS011;15703;49.588;6.260;2023-02-26T07:13:35;10.17;;;6.40;;
28481;SDS011;15703;49.588;6.260;2023-02-26T07:16:24;6.50;;;5.70;;
28481;SDS011;15703;49.588;6.260;2023-02-26T07:18:50;6.53;;;5.97;;
28481;SDS011;15703;49.588;6.260;2023-02-26T07:21:13;6.23;;;5.70;;
28481;SDS011;15703;49.588;6.260;2023-02-26T07:23:36;6.50;;;5.90;;
28481;SDS011;15703;49.588;6.260;2023-02-26T07:26:00;6.47;;;5.97;;
28481;SDS011;15703;49.588;6.260;2023-02-26T07:35:18;5.67;;;5.17;;
28481;SDS011;15703;49.588;6.260;2023-02-26T07:38:20;6.23;;;5.70;;
28481;SDS011;15703;49.588;6.260;2023-02-26T07:41:08;6.97;;;5.90;;
28481;SDS011;15703;49.588;6.260;2023-02-26T07:43:33;5.53;;;5.07;;
28481;SDS011;15703;49.588;6.260;2023-02-26T07:45:59;6.60;;;5.83;;
28481;SDS011;15703;49.588;6.260;2023-02-26T07:48:57;5.70;;;4.67;;
28481;SDS011;15703;49.588;6.260;2023-02-26T07:51:33;5.67;;;5.00;;
28481;SDS011;15703;49.588;6.260;2023-02-26T07:54:03;5.80;;;4.77;;
28481;SDS011;15703;49.588;6.260;2023-02-26T07:56:26;5.07;;;4.60;;
28481;SDS011;15703;49.588;6.260;2023-02-26T07:58:49;5.60;;;4.93;;
28481;SDS011;15703;49.588;6.260;2023-02-26T08:01:32;6.27;;;4.53;;
28481;SDS011;15703;49.588;6.260;2023-02-26T08:03:58;8.37;;;5.00;;
28481;SDS011;15703;49.588;6.260;2023-02-26T08:06:21;4.93;;;4.63;;
28481;SDS011;15703;49.588;6.260;2023-02-26T08:08:44;7.20;;;4.80;;
28481;SDS011;15703;49.588;6.260;2023-02-26T08:14:03;5.33;;;4.83;;
28481;SDS011;15703;49.588;6.260;2023-02-26T08:17:04;5.90;;;5.50;;
28481;SDS011;15703;49.588;6.260;2023-02-26T08:19:59;6.23;;;5.27;;
28481;SDS011;15703;49.588;6.260;2023-02-26T08:26:55;4.97;;;4.50;;
28481;SDS011;15703;49.588;6.260;2023-02-26T08:32:08;6.47;;;4.60;;
28481;SDS011;15703;49.588;6.260;2023-02-26T08:35:06;5.03;;;4.53;;
28481;SDS011;15703;49.588;6.260;2023-02-26T08:37:34;5.87;;;4.63;;
28481;SDS011;15703;49.588;6.260;2023-02-26T08:39:56;6.23;;;4.60;;
28481;SDS011;15703;49.588;6.260;2023-02-26T08:42:41;5.43;;;4.53;;
28481;SDS011;15703;49.588;6.260;2023-02-26T08:45:24;5.60;;;4.30;;
28481;SDS011;15703;49.588;6.260;2023-02-26T08:47:47;5.60;;;4.93;;
28481;SDS011;15703;49.588;6.260;2023-02-26T08:50:27;5.67;;;4.30;;
28481;SDS011;15703;49.588;6.260;2023-02-26T08:52:53;4.17;;;3.80;;
28481;SDS011;15703;49.588;6.260;2023-02-26T08:55:15;4.37;;;3.97;;
28481;SDS011;15703;49.588;6.260;2023-02-26T08:57:38;4.53;;;3.93;;
28481;SDS011;15703;49.588;6.260;2023-02-26T09:00:09;4.23;;;3.93;;
28481;SDS011;15703;49.588;6.260;2023-02-26T09:02:38;4.60;;;4.20;;
28481;SDS011;15703;49.588;6.260;2023-02-26T09:05:22;4.80;;;4.27;;
28481;SDS011;15703;49.588;6.260;2023-02-26T09:07:45;4.40;;;3.50;;
28481;SDS011;15703;49.588;6.260;2023-02-26T09:10:08;5.20;;;4.00;;
28481;SDS011;15703;49.588;6.260;2023-02-26T09:12:31;4.27;;;3.97;;
28481;SDS011;15703;49.588;6.260;2023-02-26T09:14:54;4.77;;;4.37;;
28481;SDS011;15703;49.588;6.260;2023-02-26T09:17:19;6.37;;;4.57;;
28481;SDS011;15703;49.588;6.260;2023-02-26T09:19:44;4.43;;;4.03;;
28481;SDS011;15703;49.588;6.260;2023-02-26T09:25:17;4.77;;;4.33;;
28481;SDS011;15703;49.588;6.260;2023-02-26T09:28:01;6.27;;;4.20;;
28481;SDS011;15703;49.588;6.260;2023-02-26T09:30:25;8.13;;;4.23;;
28481;SDS011;15703;49.588;6.260;2023-02-26T09:33:17;5.77;;;3.67;;
28481;SDS011;15703;49.588;6.260;2023-02-26T09:35:42;5.00;;;3.70;;
28481;SDS011;15703;49.588;6.260;2023-02-26T09:38:25;6.03;;;4.00;;
28481;SDS011;15703;49.588;6.260;2023-02-26T09:41:56;3.70;;;3.33;;
28481;SDS011;15703;49.588;6.260;2023-02-26T09:44:36;4.43;;;4.13;;
28481;SDS011;15703;49.588;6.260;2023-02-26T09:52:29;3.80;;;3.30;;
28481;SDS011;15703;49.588;6.260;2023-02-26T09:54:55;4.27;;;3.33;;
28481;SDS011;15703;49.588;6.260;2023-02-26T09:58:03;3.60;;;3.30;;
28481;SDS011;15703;49.588;6.260;2023-02-26T10:03:21;4.60;;;3.30;;
28481;SDS011;15703;49.588;6.260;2023-02-26T10:20:53;2.80;;;2.70;;
28481;SDS011;15703;49.588;6.260;2023-02-26T10:23:18;3.30;;;3.00;;
28481;SDS011;15703;49.588;6.260;2023-02-26T10:29:44;2.90;;;2.70;;
28481;SDS011;15703;49.588;6.260;2023-02-26T10:34:46;2.60;;;2.50;;
28481;SDS011;15703;49.588;6.260;2023-02-26T10:37:35;2.33;;;2.23;;
28481;SDS011;15703;49.588;6.260;2023-02-26T10:40:07;2.83;;;2.50;;
28481;SDS011;15703;49.588;6.260;2023-02-26T10:42:41;3.03;;;2.60;;
28481;SDS011;15703;49.588;6.260;2023-02-26T10:52:32;3.80;;;2.40;;
28481;SDS011;15703;49.588;6.260;2023-02-26T10:57:41;3.33;;;2.73;;
28481;SDS011;15703;49.588;6.260;2023-02-26T11:00:22;5.07;;;3.73;;
28481;SDS011;15703;49.588;6.260;2023-02-26T11:02:48;5.40;;;3.90;;
28481;SDS011;15703;49.588;6.260;2023-02-26T11:08:12;3.83;;;3.53;;
28481;SDS011;15703;49.588;6.260;2023-02-26T11:10:39;2.80;;;2.60;;
28481;SDS011;15703;49.588;6.260;2023-02-26T11:13:02;2.50;;;2.30;;
28481;SDS011;15703;49.588;6.260;2023-02-26T11:15:25;2.03;;;1.93;;
28481;SDS011;15703;49.588;6.260;2023-02-26T11:17:48;2.27;;;2.17;;
28481;SDS011;15703;49.588;6.260;2023-02-26T11:29:32;2.37;;;2.27;;
28481;SDS011;15703;49.588;6.260;2023-02-26T11:32:15;3.07;;;2.43;;
28481;SDS011;15703;49.588;6.260;2023-02-26T11:34:39;4.37;;;2.30;;
28481;SDS011;15703;49.588;6.260;2023-02-26T11:37:07;2.70;;;2.50;;
28481;SDS011;15703;49.588;6.260;2023-02-26T11:39:33;2.97;;;2.67;;
28481;SDS011;15703;49.588;6.260;2023-02-26T11:42:09;2.50;;;2.30;;
28481;SDS011;15703;49.588;6.260;2023-02-26T11:44:36;2.90;;;2.23;;
28481;SDS011;15703;49.588;6.260;2023-02-26T11:47:00;2.30;;;2.10;;
28481;SDS011;15703;49.588;6.260;2023-02-26T11:54:30;2.90;;;2.57;;
28481;SDS011;15703;49.588;6.260;2023-02-26T11:57:02;2.70;;;2.60;;
28481;SDS011;15703;49.588;6.260;2023-02-26T11:59:26;2.30;;;2.20;;
28481;SDS011;15703;49.588;6.260;2023-02-26T12:01:52;2.67;;;2.47;;
28481;SDS011;15703;49.588;6.260;2023-02-26T12:04:18;2.80;;;2.27;;
28481;SDS011;15703;49.588;6.260;2023-02-26T12:06:42;2.10;;;2.00;;
28481;SDS011;15703;49.588;6.260;2023-02-26T12:09:08;2.33;;;2.20;;
28481;SDS011;15703;49.588;6.260;2023-02-26T12:14:20;5.93;;;3.70;;
28481;SDS011;15703;49.588;6.260;2023-02-26T12:22:01;2.40;;;2.07;;
28481;SDS011;15703;49.588;6.260;2023-02-26T12:29:47;3.50;;;2.20;;
28481;SDS011;15703;49.588;6.260;2023-02-26T12:32:15;2.30;;;2.20;;
28481;SDS011;15703;49.588;6.260;2023-02-26T12:37:41;2.40;;;2.20;;
28481;SDS011;15703;49.588;6.260;2023-02-26T12:48:00;3.20;;;2.87;;
28481;SDS011;15703;49.588;6.260;2023-02-26T12:50:27;2.20;;;1.80;;
28481;SDS011;15703;49.588;6.260;2023-02-26T12:55:24;2.40;;;2.20;;
28481;SDS011;15703;49.588;6.260;2023-02-26T12:58:08;2.80;;;2.20;;
28481;SDS011;15703;49.588;6.260;2023-02-26T13:05:41;2.10;;;2.00;;
28481;SDS011;15703;49.588;6.260;2023-02-26T13:13:10;2.30;;;2.20;;
28481;SDS011;15703;49.588;6.260;2023-02-26T13:18:21;3.00;;;2.80;;
28481;SDS011;15703;49.588;6.260;2023-02-26T13:20:51;2.40;;;2.20;;
28481;SDS011;15703;49.588;6.260;2023-02-26T13:23:18;2.77;;;2.50;;
28481;SDS011;15703;49.588;6.260;2023-02-26T13:25:48;2.23;;;2.13;;
28481;SDS011;15703;49.588;6.260;2023-02-26T13:30:44;2.87;;;2.67;;
28481;SDS011;15703;49.588;6.260;2023-02-26T13:33:22;2.90;;;2.60;;
28481;SDS011;15703;49.588;6.260;2023-02-26T13:35:46;2.40;;;2.30;;
28481;SDS011;15703;49.588;6.260;2023-02-26T13:38:21;2.00;;;1.90;;
28481;SDS011;15703;49.588;6.260;2023-02-26T13:41:43;2.20;;;2.10;;
28481;SDS011;15703;49.588;6.260;2023-02-26T13:44:53;2.17;;;2.07;;
28481;SDS011;15703;49.588;6.260;2023-02-26T13:52:23;2.37;;;2.10;;
28481;SDS011;15703;49.588;6.260;2023-02-26T13:54:46;3.03;;;2.83;;
28481;SDS011;15703;49.588;6.260;2023-02-26T14:00:24;2.20;;;2.10;;
28481;SDS011;15703;49.588;6.260;2023-02-26T14:02:49;2.53;;;2.33;;
28481;SDS011;15703;49.588;6.260;2023-02-26T14:08:25;1.83;;;1.80;;
28481;SDS011;15703;49.588;6.260;2023-02-26T14:13:13;2.80;;;2.50;;
28481;SDS011;15703;49.588;6.260;2023-02-26T14:15:39;3.53;;;2.00;;
28481;SDS011;15703;49.588;6.260;2023-02-26T14:18:04;2.30;;;1.83;;
28481;SDS011;15703;49.588;6.260;2023-02-26T14:20:28;2.20;;;2.07;;
28481;SDS011;15703;49.588;6.260;2023-02-26T14:22:58;2.50;;;2.30;;
28481;SDS011;15703;49.588;6.260;2023-02-26T14:25:33;1.97;;;1.87;;
28481;SDS011;15703;49.588;6.260;2023-02-26T14:30:36;2.13;;;2.03;;
28481;SDS011;15703;49.588;6.260;2023-02-26T14:33:07;2.23;;;2.13;;
28481;SDS011;15703;49.588;6.260;2023-02-26T14:35:41;2.13;;;2.03;;
28481;SDS011;15703;49.588;6.260;2023-02-26T14:38:06;2.30;;;2.20;;
28481;SDS011;15703;49.588;6.260;2023-02-26T14:40:32;2.40;;;2.30;;
28481;SDS011;15703;49.588;6.260;2023-02-26T14:42:58;2.30;;;2.20;;
28481;SDS011;15703;49.588;6.260;2023-02-26T14:47:47;2.20;;;2.10;;
28481;SDS011;15703;49.588;6.260;2023-02-26T14:50:13;3.17;;;2.20;;
28481;SDS011;15703;49.588;6.260;2023-02-26T15:05:55;2.43;;;2.27;;
28481;SDS011;15703;49.588;6.260;2023-02-26T15:13:15;2.40;;;2.30;;
28481;SDS011;15703;49.588;6.260;2023-02-26T15:18:18;2.90;;;2.47;;
28481;SDS011;15703;49.588;6.260;2023-02-26T15:23:37;2.30;;;2.20;;
28481;SDS011;15703;49.588;6.260;2023-02-26T15:26:01;2.50;;;2.30;;
28481;SDS011;15703;49.588;6.260;2023-02-26T15:28:34;2.70;;;2.60;;
28481;SDS011;15703;49.588;6.260;2023-02-26T15:30:58;3.00;;;2.70;;
28481;SDS011;15703;49.588;6.260;2023-02-26T15:33:22;2.53;;;2.27;;
28481;SDS011;15703;49.588;6.260;2023-02-26T15:35:47;2.33;;;2.23;;
28481;SDS011;15703;49.588;6.260;2023-02-26T15:38:09;2.20;;;1.93;;
28481;SDS011;15703;49.588;6.260;2023-02-26T15:40:33;2.40;;;2.20;;
28481;SDS011;15703;49.588;6.260;2023-02-26T15:42:56;2.83;;;2.63;;
28481;SDS011;15703;49.588;6.260;2023-02-26T15:47:47;2.10;;;2.00;;
28481;SDS011;15703;49.588;6.260;2023-02-26T15:50:15;2.40;;;2.30;;
28481;SDS011;15703;49.588;6.260;2023-02-26T15:52:37;2.67;;;2.47;;
28481;SDS011;15703;49.588;6.260;2023-02-26T15:55:03;2.30;;;2.17;;
28481;SDS011;15703;49.588;6.260;2023-02-26T15:57:27;2.30;;;2.10;;
28481;SDS011;15703;49.588;6.260;2023-02-26T15:59:59;4.60;;;2.50;;
28481;SDS011;15703;49.588;6.260;2023-02-26T16:02:33;2.43;;;2.33;;
28481;SDS011;15703;49.588;6.260;2023-02-26T16:05:00;2.83;;;2.30;;
28481;SDS011;15703;49.588;6.260;2023-02-26T16:07:23;2.00;;;1.90;;
28481;SDS011;15703;49.588;6.260;2023-02-26T16:09:47;2.30;;;2.20;;
28481;SDS011;15703;49.588;6.260;2023-02-26T16:12:13;2.20;;;2.10;;
28481;SDS011;15703;49.588;6.260;2023-02-26T16:14:49;3.43;;;2.13;;
28481;SDS011;15703;49.588;6.260;2023-02-26T16:17:13;2.30;;;2.20;;
28481;SDS011;15703;49.588;6.260;2023-02-26T16:19:37;2.57;;;2.40;;
28481;SDS011;15703;49.588;6.260;2023-02-26T16:22:05;2.80;;;2.60;;
28481;SDS011;15703;49.588;6.260;2023-02-26T16:24:29;6.03;;;3.90;;
28481;SDS011;15703;49.588;6.260;2023-02-26T16:26:57;2.70;;;2.50;;
28481;SDS011;15703;49.588;6.260;2023-02-26T16:29:23;3.13;;;2.93;;
28481;SDS011;15703;49.588;6.260;2023-02-26T16:31:50;2.60;;;2.40;;
28481;SDS011;15703;49.588;6.260;2023-02-26T16:36:58;3.00;;;2.80;;
28481;SDS011;15703;49.588;6.260;2023-02-26T16:39:31;2.50;;;2.40;;
28481;SDS011;15703;49.588;6.260;2023-02-26T16:42:01;2.43;;;2.30;;
28481;SDS011;15703;49.588;6.260;2023-02-26T16:47:56;3.27;;;3.07;;
28481;SDS011;15703;49.588;6.260;2023-02-26T16:50:22;3.33;;;2.53;;
28481;SDS011;15703;49.588;6.260;2023-02-26T16:53:48;3.90;;;3.57;;
28481;SDS011;15703;49.588;6.260;2023-02-26T16:57:31;2.80;;;2.60;;
28481;SDS011;15703;49.588;6.260;2023-02-26T17:00:05;4.90;;;3.00;;
28481;SDS011;15703;49.588;6.260;2023-02-26T17:02:32;2.50;;;2.30;;
28481;SDS011;15703;49.588;6.260;2023-02-26T17:05:06;3.50;;;3.20;;
28481;SDS011;15703;49.588;6.260;2023-02-26T17:11:07;2.80;;;2.60;;
28481;SDS011;15703;49.588;6.260;2023-02-26T17:13:44;2.70;;;2.60;;
28481;SDS011;15703;49.588;6.260;2023-02-26T17:16:27;3.00;;;2.70;;
28481;SDS011;15703;49.588;6.260;2023-02-26T17:18:51;2.90;;;2.70;;
28481;SDS011;15703;49.588;6.260;2023-02-26T17:21:14;2.67;;;2.57;;
28481;SDS011;15703;49.588;6.260;2023-02-26T17:23:38;3.30;;;3.00;;
28481;SDS011;15703;49.588;6.260;2023-02-26T17:26:05;2.67;;;2.57;;
28481;SDS011;15703;49.588;6.260;2023-02-26T17:29:22;3.20;;;2.73;;
28481;SDS011;15703;49.588;6.260;2023-02-26T17:31:48;3.23;;;2.93;;
28481;SDS011;15703;49.588;6.260;2023-02-26T17:34:12;3.10;;;2.90;;
28481;SDS011;15703;49.588;6.260;2023-02-26T17:37:10;3.10;;;2.80;;
28481;SDS011;15703;49.588;6.260;2023-02-26T17:39:34;3.20;;;2.70;;
28481;SDS011;15703;49.588;6.260;2023-02-26T17:41:58;2.70;;;2.60;;
28481;SDS011;15703;49.588;6.260;2023-02-26T17:45:05;2.73;;;2.63;;
28481;SDS011;15703;49.588;6.260;2023-02-26T17:47:28;2.73;;;2.63;;
28481;SDS011;15703;49.588;6.260;2023-02-26T17:50:16;3.10;;;2.90;;
28481;SDS011;15703;49.588;6.260;2023-02-26T17:52:41;3.27;;;3.00;;
28481;SDS011;15703;49.588;6.260;2023-02-26T17:55:22;3.07;;;2.87;;
28481;SDS011;15703;49.588;6.260;2023-02-26T17:57:45;2.93;;;2.73;;
28481;SDS011;15703;49.588;6.260;2023-02-26T18:00:09;3.13;;;2.93;;
28481;SDS011;15703;49.588;6.260;2023-02-26T18:02:38;2.90;;;2.70;;
28481;SDS011;15703;49.588;6.260;2023-02-26T18:05:01;4.93;;;4.17;;
28481;SDS011;15703;49.588;6.260;2023-02-26T18:07:24;4.10;;;3.70;;
28481;SDS011;15703;49.588;6.260;2023-02-26T18:09:46;4.10;;;3.77;;
28481;SDS011;15703;49.588;6.260;2023-02-26T18:12:11;3.23;;;2.93;;
28481;SDS011;15703;49.588;6.260;2023-02-26T18:14:34;3.67;;;3.37;;
28481;SDS011;15703;49.588;6.260;2023-02-26T18:16:56;3.00;;;2.80;;
28481;SDS011;15703;49.588;6.260;2023-02-26T18:19:21;3.07;;;2.87;;
28481;SDS011;15703;49.588;6.260;2023-02-26T18:21:44;3.23;;;3.03;;
28481;SDS011;15703;49.588;6.260;2023-02-26T18:24:06;4.37;;;3.77;;
28481;SDS011;15703;49.588;6.260;2023-02-26T18:26:30;4.70;;;3.80;;
28481;SDS011;15703;49.588;6.260;2023-02-26T18:28:53;4.53;;;4.10;;
28481;SDS011;15703;49.588;6.260;2023-02-26T18:31:18;6.13;;;4.43;;
28481;SDS011;15703;49.588;6.260;2023-02-26T18:33:41;3.80;;;3.50;;
28481;SDS011;15703;49.588;6.260;2023-02-26T18:36:04;3.47;;;3.17;;
28481;SDS011;15703;49.588;6.260;2023-02-26T18:38:45;3.10;;;3.00;;
28481;SDS011;15703;49.588;6.260;2023-02-26T18:41:08;3.10;;;2.93;;
28481;SDS011;15703;49.588;6.260;2023-02-26T18:43:31;3.70;;;3.50;;
28481;SDS011;15703;49.588;6.260;2023-02-26T18:45:54;3.00;;;2.80;;
28481;SDS011;15703;49.588;6.260;2023-02-26T18:48:21;3.03;;;2.93;;
28481;SDS011;15703;49.588;6.260;2023-02-26T18:50:44;4.20;;;3.20;;
28481;SDS011;15703;49.588;6.260;2023-02-26T18:53:07;3.60;;;3.30;;
28481;SDS011;15703;49.588;6.260;2023-02-26T18:55:37;3.03;;;2.83;;
28481;SDS011;15703;49.588;6.260;2023-02-26T18:58:00;2.80;;;2.60;;
28481;SDS011;15703;49.588;6.260;2023-02-26T19:00:34;3.13;;;2.83;;
28481;SDS011;15703;49.588;6.260;2023-02-26T19:03:01;3.10;;;2.90;;
28481;SDS011;15703;49.588;6.260;2023-02-26T19:05:23;3.37;;;3.17;;
28481;SDS011;15703;49.588;6.260;2023-02-26T19:07:47;3.47;;;3.20;;
28481;SDS011;15703;49.588;6.260;2023-02-26T19:10:10;2.87;;;2.77;;
28481;SDS011;15703;49.588;6.260;2023-02-26T19:12:36;3.30;;;3.10;;
28481;SDS011;15703;49.588;6.260;2023-02-26T19:15:08;4.00;;;3.63;;
28481;SDS011;15703;49.588;6.260;2023-02-26T19:17:53;4.03;;;3.33;;
28481;SDS011;15703;49.588;6.260;2023-02-26T19:20:19;8.70;;;5.33;;
28481;SDS011;15703;49.588;6.260;2023-02-26T19:25:30;4.40;;;4.00;;
28481;SDS011;15703;49.588;6.260;2023-02-26T19:27:57;3.77;;;3.47;;
28481;SDS011;15703;49.588;6.260;2023-02-26T19:33:38;5.03;;;3.57;;
28481;SDS011;15703;49.588;6.260;2023-02-26T19:36:01;3.60;;;3.30;;
28481;SDS011;15703;49.588;6.260;2023-02-26T19:38:26;3.37;;;3.17;;
28481;SDS011;15703;49.588;6.260;2023-02-26T19:40:53;4.13;;;3.40;;